sensor_id;sensor_type;location;lat;lon;timestamp;P1;durP1;ratioP1;P2;durP2;ratioP2
27491;SDS011;14927;51.210;6.838;2024-03-02T00:01:35;3.30;;;1.45;;
27491;SDS011;14927;51.210;6.838;2024-03-02T00:04:20;2.67;;;1.42;;
27491;SDS011;14927;51.210;6.838;2024-03-02T00:07:06;2.15;;;1.00;;
27491;SDS011;14927;51.210;6.838;2024-03-02T00:09:52;3.00;;;1.27;;
27491;SDS011;14927;51.210;6.838;2024-03-02T00:12:38;2.80;;;1.42;;
27491;SDS011;14927;51.210;6.838;2024-03-02T00:18:33;2.47;;;1.15;;
27491;SDS011;14927;51.210;6.838;2024-03-02T00:21:19;2.17;;;1.17;;
27491;SDS011;14927;51.210;6.838;2024-03-02T00:24:27;3.47;;;1.58;;
27491;SDS011;14927;51.210;6.838;2024-03-02T00:27:18;2.15;;;1.30;;
27491;SDS011;14927;51.210;6.838;2024-03-02T00:30:51;1.50;;;1.23;;
27491;SDS011;14927;51.210;6.838;2024-03-02T00:33:20;2.17;;;1.40;;
27491;SDS011;14927;51.210;6.838;2024-03-02T00:36:06;2.55;;;1.20;;
27491;SDS011;14927;51.210;6.838;2024-03-02T00:38:52;1.48;;;1.30;;
27491;SDS011;14927;51.210;6.838;2024-03-02T00:41:38;1.98;;;1.27;;
27491;SDS011;14927;51.210;6.838;2024-03-02T00:44:28;1.00;;;0.90;;
27491;SDS011;14927;51.210;6.838;2024-03-02T00:47:19;1.95;;;1.15;;
27491;SDS011;14927;51.210;6.838;2024-03-02T00:50:04;2.15;;;1.00;;
27491;SDS011;14927;51.210;6.838;2024-03-02T00:52:50;2.28;;;1.20;;
27491;SDS011;14927;51.210;6.838;2024-03-02T00:55:35;2.53;;;1.00;;
27491;SDS011;14927;51.210;6.838;2024-03-02T00:58:21;2.25;;;1.30;;
27491;SDS011;14927;51.210;6.838;2024-03-02T01:01:06;2.08;;;1.33;;
27491;SDS011;14927;51.210;6.838;2024-03-02T01:03:51;1.67;;;1.13;;
27491;SDS011;14927;51.210;6.838;2024-03-02T01:06:36;2.35;;;1.05;;
27491;SDS011;14927;51.210;6.838;2024-03-02T01:09:21;1.17;;;1.00;;
27491;SDS011;14927;51.210;6.838;2024-03-02T01:12:06;1.73;;;1.08;;
27491;SDS011;14927;51.210;6.838;2024-03-02T01:14:51;2.15;;;1.20;;
27491;SDS011;14927;51.210;6.838;2024-03-02T01:17:35;3.45;;;1.58;;
27491;SDS011;14927;51.210;6.838;2024-03-02T01:20:20;2.08;;;1.33;;
27491;SDS011;14927;51.210;6.838;2024-03-02T01:23:05;2.38;;;1.08;;
27491;SDS011;14927;51.210;6.838;2024-03-02T01:25:50;4.43;;;1.30;;
27491;SDS011;14927;51.210;6.838;2024-03-02T01:28:36;4.13;;;1.30;;
27491;SDS011;14927;51.210;6.838;2024-03-02T01:31:20;1.42;;;1.17;;
27491;SDS011;14927;51.210;6.838;2024-03-02T01:34:05;2.35;;;1.20;;
27491;SDS011;14927;51.210;6.838;2024-03-02T01:36:49;2.83;;;1.10;;
27491;SDS011;14927;51.210;6.838;2024-03-02T01:39:34;2.80;;;1.00;;
27491;SDS011;14927;51.210;6.838;2024-03-02T01:42:19;1.60;;;1.00;;
27491;SDS011;14927;51.210;6.838;2024-03-02T01:45:04;1.10;;;0.80;;
27491;SDS011;14927;51.210;6.838;2024-03-02T01:47:50;1.45;;;1.02;;
27491;SDS011;14927;51.210;6.838;2024-03-02T01:50:35;2.30;;;1.33;;
27491;SDS011;14927;51.210;6.838;2024-03-02T01:53:20;2.10;;;0.98;;
27491;SDS011;14927;51.210;6.838;2024-03-02T01:56:04;2.30;;;1.25;;
27491;SDS011;14927;51.210;6.838;2024-03-02T01:58:49;5.03;;;1.27;;
27491;SDS011;14927;51.210;6.838;2024-03-02T02:01:34;1.88;;;0.77;;
27491;SDS011;14927;51.210;6.838;2024-03-02T02:04:18;2.90;;;1.30;;
27491;SDS011;14927;51.210;6.838;2024-03-02T02:07:05;1.88;;;0.90;;
27491;SDS011;14927;51.210;6.838;2024-03-02T02:09:50;1.70;;;0.77;;
27491;SDS011;14927;51.210;6.838;2024-03-02T02:12:35;3.97;;;1.05;;
27491;SDS011;14927;51.210;6.838;2024-03-02T02:15:27;1.88;;;1.00;;
27491;SDS011;14927;51.210;6.838;2024-03-02T02:18:13;2.10;;;1.00;;
27491;SDS011;14927;51.210;6.838;2024-03-02T02:20:58;2.45;;;1.13;;
27491;SDS011;14927;51.210;6.838;2024-03-02T02:23:42;3.72;;;1.05;;
27491;SDS011;14927;51.210;6.838;2024-03-02T02:26:31;2.10;;;1.15;;
27491;SDS011;14927;51.210;6.838;2024-03-02T02:29:16;1.60;;;0.90;;
27491;SDS011;14927;51.210;6.838;2024-03-02T02:32:01;2.17;;;0.88;;
27491;SDS011;14927;51.210;6.838;2024-03-02T02:34:46;2.03;;;0.90;;
27491;SDS011;14927;51.210;6.838;2024-03-02T02:37:30;1.55;;;0.98;;
27491;SDS011;14927;51.210;6.838;2024-03-02T02:40:15;1.25;;;0.90;;
27491;SDS011;14927;51.210;6.838;2024-03-02T02:43:02;1.48;;;0.80;;
27491;SDS011;14927;51.210;6.838;2024-03-02T02:45:47;1.92;;;0.73;;
27491;SDS011;14927;51.210;6.838;2024-03-02T02:48:32;3.15;;;0.90;;
27491;SDS011;14927;51.210;6.838;2024-03-02T02:51:17;4.30;;;1.35;;
27491;SDS011;14927;51.210;6.838;2024-03-02T02:54:01;1.17;;;0.73;;
27491;SDS011;14927;51.210;6.838;2024-03-02T02:56:46;3.47;;;1.08;;
27491;SDS011;14927;51.210;6.838;2024-03-02T02:59:30;6.97;;;1.00;;
27491;SDS011;14927;51.210;6.838;2024-03-02T03:02:15;1.58;;;0.85;;
27491;SDS011;14927;51.210;6.838;2024-03-02T03:05:00;2.05;;;0.82;;
27491;SDS011;14927;51.210;6.838;2024-03-02T03:07:44;1.50;;;0.70;;
27491;SDS011;14927;51.210;6.838;2024-03-02T03:10:29;1.83;;;0.82;;
27491;SDS011;14927;51.210;6.838;2024-03-02T03:13:15;3.42;;;0.98;;
27491;SDS011;14927;51.210;6.838;2024-03-02T03:15:59;1.70;;;0.93;;
27491;SDS011;14927;51.210;6.838;2024-03-02T03:18:44;1.67;;;0.95;;
27491;SDS011;14927;51.210;6.838;2024-03-02T03:21:29;1.50;;;0.85;;
27491;SDS011;14927;51.210;6.838;2024-03-02T03:24:13;1.95;;;0.82;;
27491;SDS011;14927;51.210;6.838;2024-03-02T03:26:58;1.85;;;0.80;;
27491;SDS011;14927;51.210;6.838;2024-03-02T03:29:42;1.70;;;0.68;;
27491;SDS011;14927;51.210;6.838;2024-03-02T03:32:27;7.00;;;1.10;;
27491;SDS011;14927;51.210;6.838;2024-03-02T03:35:12;2.25;;;0.98;;
27491;SDS011;14927;51.210;6.838;2024-03-02T03:37:58;2.30;;;0.88;;
27491;SDS011;14927;51.210;6.838;2024-03-02T03:40:42;2.28;;;0.73;;
27491;SDS011;14927;51.210;6.838;2024-03-02T03:43:28;2.78;;;0.90;;
27491;SDS011;14927;51.210;6.838;2024-03-02T03:46:13;1.63;;;1.10;;
27491;SDS011;14927;51.210;6.838;2024-03-02T03:48:57;3.10;;;0.80;;
27491;SDS011;14927;51.210;6.838;2024-03-02T03:51:42;1.40;;;0.80;;
27491;SDS011;14927;51.210;6.838;2024-03-02T03:54:27;0.98;;;0.88;;
27491;SDS011;14927;51.210;6.838;2024-03-02T03:57:12;2.10;;;1.00;;
27491;SDS011;14927;51.210;6.838;2024-03-02T03:59:57;2.72;;;1.20;;
27491;SDS011;14927;51.210;6.838;2024-03-02T04:02:42;2.30;;;1.02;;
27491;SDS011;14927;51.210;6.838;2024-03-02T04:05:27;2.60;;;0.82;;
27491;SDS011;14927;51.210;6.838;2024-03-02T04:08:12;1.83;;;0.90;;
27491;SDS011;14927;51.210;6.838;2024-03-02T04:10:56;2.90;;;1.10;;
27491;SDS011;14927;51.210;6.838;2024-03-02T04:13:41;1.63;;;0.95;;
27491;SDS011;14927;51.210;6.838;2024-03-02T04:16:25;1.80;;;1.08;;
27491;SDS011;14927;51.210;6.838;2024-03-02T04:19:10;1.92;;;1.17;;
27491;SDS011;14927;51.210;6.838;2024-03-02T04:21:55;3.20;;;0.85;;
27491;SDS011;14927;51.210;6.838;2024-03-02T04:24:39;3.78;;;0.90;;
27491;SDS011;14927;51.210;6.838;2024-03-02T04:27:24;2.15;;;0.90;;
27491;SDS011;14927;51.210;6.838;2024-03-02T04:30:09;2.00;;;1.08;;
27491;SDS011;14927;51.210;6.838;2024-03-02T04:32:54;2.40;;;0.90;;
27491;SDS011;14927;51.210;6.838;2024-03-02T04:35:38;1.67;;;0.80;;
27491;SDS011;14927;51.210;6.838;2024-03-02T04:38:23;1.63;;;0.93;;
27491;SDS011;14927;51.210;6.838;2024-03-02T04:41:08;4.25;;;1.05;;
27491;SDS011;14927;51.210;6.838;2024-03-02T04:43:52;2.22;;;0.90;;
27491;SDS011;14927;51.210;6.838;2024-03-02T04:46:37;1.90;;;1.15;;
27491;SDS011;14927;51.210;6.838;2024-03-02T04:49:21;2.17;;;1.00;;
27491;SDS011;14927;51.210;6.838;2024-03-02T04:52:06;1.30;;;0.88;;
27491;SDS011;14927;51.210;6.838;2024-03-02T04:54:51;4.18;;;1.15;;
27491;SDS011;14927;51.210;6.838;2024-03-02T04:58:00;1.88;;;1.10;;
27491;SDS011;14927;51.210;6.838;2024-03-02T05:00:44;2.00;;;1.20;;
27491;SDS011;14927;51.210;6.838;2024-03-02T05:03:30;3.75;;;1.10;;
27491;SDS011;14927;51.210;6.838;2024-03-02T05:06:18;2.17;;;1.02;;
27491;SDS011;14927;51.210;6.838;2024-03-02T05:09:02;2.55;;;1.00;;
27491;SDS011;14927;51.210;6.838;2024-03-02T05:11:47;1.73;;;1.10;;
27491;SDS011;14927;51.210;6.838;2024-03-02T05:14:54;2.97;;;1.23;;
27491;SDS011;14927;51.210;6.838;2024-03-02T05:17:40;1.98;;;0.90;;
27491;SDS011;14927;51.210;6.838;2024-03-02T05:20:28;2.58;;;1.17;;
27491;SDS011;14927;51.210;6.838;2024-03-02T05:23:13;2.05;;;1.10;;
27491;SDS011;14927;51.210;6.838;2024-03-02T05:25:58;2.60;;;1.33;;
27491;SDS011;14927;51.210;6.838;2024-03-02T05:28:42;2.33;;;1.17;;
27491;SDS011;14927;51.210;6.838;2024-03-02T05:31:27;3.08;;;1.50;;
27491;SDS011;14927;51.210;6.838;2024-03-02T05:34:12;2.63;;;1.33;;
27491;SDS011;14927;51.210;6.838;2024-03-02T05:36:56;2.10;;;1.20;;
27491;SDS011;14927;51.210;6.838;2024-03-02T05:39:41;3.50;;;1.65;;
27491;SDS011;14927;51.210;6.838;2024-03-02T05:42:27;3.38;;;1.52;;
27491;SDS011;14927;51.210;6.838;2024-03-02T05:45:11;2.83;;;1.60;;
27491;SDS011;14927;51.210;6.838;2024-03-02T05:47:56;3.83;;;1.60;;
27491;SDS011;14927;51.210;6.838;2024-03-02T05:50:40;3.17;;;1.50;;
27491;SDS011;14927;51.210;6.838;2024-03-02T05:53:25;2.47;;;1.40;;
27491;SDS011;14927;51.210;6.838;2024-03-02T05:56:10;2.42;;;1.35;;
27491;SDS011;14927;51.210;6.838;2024-03-02T05:58:55;3.53;;;1.30;;
27491;SDS011;14927;51.210;6.838;2024-03-02T06:01:59;4.85;;;1.67;;
27491;SDS011;14927;51.210;6.838;2024-03-02T06:04:44;2.10;;;1.30;;
27491;SDS011;14927;51.210;6.838;2024-03-02T06:07:28;2.08;;;1.20;;
27491;SDS011;14927;51.210;6.838;2024-03-02T06:10:13;3.05;;;1.30;;
27491;SDS011;14927;51.210;6.838;2024-03-02T06:12:58;5.70;;;1.48;;
27491;SDS011;14927;51.210;6.838;2024-03-02T06:15:42;2.28;;;1.35;;
27491;SDS011;14927;51.210;6.838;2024-03-02T06:18:27;3.25;;;1.20;;
27491;SDS011;14927;51.210;6.838;2024-03-02T06:21:12;3.78;;;1.60;;
27491;SDS011;14927;51.210;6.838;2024-03-02T06:23:56;2.40;;;1.35;;
27491;SDS011;14927;51.210;6.838;2024-03-02T06:26:41;4.85;;;1.73;;
27491;SDS011;14927;51.210;6.838;2024-03-02T06:29:26;3.97;;;1.40;;
27491;SDS011;14927;51.210;6.838;2024-03-02T06:32:11;2.35;;;1.30;;
27491;SDS011;14927;51.210;6.838;2024-03-02T06:34:55;1.70;;;1.30;;
27491;SDS011;14927;51.210;6.838;2024-03-02T06:37:40;5.55;;;1.70;;
27491;SDS011;14927;51.210;6.838;2024-03-02T06:40:24;3.13;;;1.33;;
27491;SDS011;14927;51.210;6.838;2024-03-02T06:43:09;2.72;;;1.77;;
27491;SDS011;14927;51.210;6.838;2024-03-02T06:45:54;2.80;;;1.33;;
27491;SDS011;14927;51.210;6.838;2024-03-02T06:48:38;3.58;;;1.67;;
27491;SDS011;14927;51.210;6.838;2024-03-02T06:51:23;5.47;;;1.55;;
27491;SDS011;14927;51.210;6.838;2024-03-02T06:54:07;6.22;;;1.85;;
27491;SDS011;14927;51.210;6.838;2024-03-02T06:56:52;3.47;;;1.55;;
27491;SDS011;14927;51.210;6.838;2024-03-02T06:59:36;3.58;;;1.80;;
27491;SDS011;14927;51.210;6.838;2024-03-02T07:02:21;6.05;;;1.88;;
27491;SDS011;14927;51.210;6.838;2024-03-02T07:05:06;5.22;;;2.25;;
27491;SDS011;14927;51.210;6.838;2024-03-02T07:07:52;5.88;;;2.55;;
27491;SDS011;14927;51.210;6.838;2024-03-02T07:10:37;4.90;;;1.70;;
27491;SDS011;14927;51.210;6.838;2024-03-02T07:13:21;3.08;;;1.58;;
27491;SDS011;14927;51.210;6.838;2024-03-02T07:16:06;5.90;;;1.80;;
27491;SDS011;14927;51.210;6.838;2024-03-02T07:19:11;3.53;;;1.67;;
27491;SDS011;14927;51.210;6.838;2024-03-02T07:21:56;7.00;;;2.42;;
27491;SDS011;14927;51.210;6.838;2024-03-02T07:24:41;3.70;;;1.60;;
27491;SDS011;14927;51.210;6.838;2024-03-02T07:27:26;3.67;;;2.08;;
27491;SDS011;14927;51.210;6.838;2024-03-02T07:30:13;4.72;;;1.80;;
27491;SDS011;14927;51.210;6.838;2024-03-02T07:33:00;3.65;;;1.98;;
27491;SDS011;14927;51.210;6.838;2024-03-02T07:35:44;3.72;;;1.73;;
27491;SDS011;14927;51.210;6.838;2024-03-02T07:38:29;4.70;;;2.00;;
27491;SDS011;14927;51.210;6.838;2024-03-02T07:41:15;3.97;;;1.92;;
27491;SDS011;14927;51.210;6.838;2024-03-02T07:43:59;3.42;;;2.03;;
27491;SDS011;14927;51.210;6.838;2024-03-02T07:46:47;3.85;;;1.60;;
27491;SDS011;14927;51.210;6.838;2024-03-02T07:49:35;6.22;;;2.20;;
27491;SDS011;14927;51.210;6.838;2024-03-02T07:52:20;1.83;;;1.45;;
27491;SDS011;14927;51.210;6.838;2024-03-02T07:55:04;5.60;;;1.80;;
27491;SDS011;14927;51.210;6.838;2024-03-02T07:57:49;3.17;;;1.77;;
27491;SDS011;14927;51.210;6.838;2024-03-02T08:00:34;7.10;;;1.75;;
27491;SDS011;14927;51.210;6.838;2024-03-02T08:03:19;3.95;;;1.77;;
27491;SDS011;14927;51.210;6.838;2024-03-02T08:06:03;3.45;;;1.98;;
27491;SDS011;14927;51.210;6.838;2024-03-02T08:08:48;2.72;;;1.38;;
27491;SDS011;14927;51.210;6.838;2024-03-02T08:11:33;2.72;;;1.65;;
27491;SDS011;14927;51.210;6.838;2024-03-02T08:14:18;3.25;;;1.70;;
27491;SDS011;14927;51.210;6.838;2024-03-02T08:17:03;3.35;;;1.50;;
27491;SDS011;14927;51.210;6.838;2024-03-02T08:19:53;5.38;;;1.45;;
27491;SDS011;14927;51.210;6.838;2024-03-02T08:22:39;4.63;;;1.70;;
27491;SDS011;14927;51.210;6.838;2024-03-02T08:25:23;3.92;;;2.10;;
27491;SDS011;14927;51.210;6.838;2024-03-02T08:28:08;4.20;;;1.88;;
27491;SDS011;14927;51.210;6.838;2024-03-02T08:30:53;3.25;;;1.73;;
27491;SDS011;14927;51.210;6.838;2024-03-02T08:33:38;4.88;;;1.80;;
27491;SDS011;14927;51.210;6.838;2024-03-02T08:36:24;2.55;;;1.70;;
27491;SDS011;14927;51.210;6.838;2024-03-02T08:39:12;2.45;;;1.60;;
27491;SDS011;14927;51.210;6.838;2024-03-02T08:41:59;5.20;;;1.40;;
27491;SDS011;14927;51.210;6.838;2024-03-02T08:44:44;3.15;;;1.25;;
27491;SDS011;14927;51.210;6.838;2024-03-02T08:47:29;2.25;;;1.38;;
27491;SDS011;14927;51.210;6.838;2024-03-02T08:50:14;3.13;;;1.65;;
27491;SDS011;14927;51.210;6.838;2024-03-02T08:52:58;5.28;;;1.95;;
27491;SDS011;14927;51.210;6.838;2024-03-02T08:55:44;5.47;;;1.38;;
27491;SDS011;14927;51.210;6.838;2024-03-02T08:58:33;3.85;;;1.63;;
27491;SDS011;14927;51.210;6.838;2024-03-02T09:01:17;2.72;;;1.20;;
27491;SDS011;14927;51.210;6.838;2024-03-02T09:04:06;1.90;;;1.33;;
27491;SDS011;14927;51.210;6.838;2024-03-02T09:06:52;2.35;;;1.40;;
27491;SDS011;14927;51.210;6.838;2024-03-02T09:09:37;3.70;;;1.33;;
27491;SDS011;14927;51.210;6.838;2024-03-02T09:12:22;3.88;;;1.52;;
27491;SDS011;14927;51.210;6.838;2024-03-02T09:15:07;3.17;;;1.55;;
27491;SDS011;14927;51.210;6.838;2024-03-02T09:17:52;1.95;;;1.20;;
27491;SDS011;14927;51.210;6.838;2024-03-02T09:20:36;1.85;;;1.55;;
27491;SDS011;14927;51.210;6.838;2024-03-02T09:23:21;3.90;;;1.85;;
27491;SDS011;14927;51.210;6.838;2024-03-02T09:26:06;2.97;;;2.05;;
27491;SDS011;14927;51.210;6.838;2024-03-02T09:28:50;3.13;;;1.65;;
27491;SDS011;14927;51.210;6.838;2024-03-02T09:31:40;2.70;;;1.40;;
27491;SDS011;14927;51.210;6.838;2024-03-02T09:34:25;3.08;;;1.58;;
27491;SDS011;14927;51.210;6.838;2024-03-02T09:37:10;7.20;;;1.25;;
27491;SDS011;14927;51.210;6.838;2024-03-02T09:39:54;2.45;;;1.20;;
27491;SDS011;14927;51.210;6.838;2024-03-02T09:42:39;1.55;;;0.90;;
27491;SDS011;14927;51.210;6.838;2024-03-02T09:45:25;2.17;;;0.82;;
27491;SDS011;14927;51.210;6.838;2024-03-02T09:48:10;6.53;;;1.10;;
27491;SDS011;14927;51.210;6.838;2024-03-02T09:50:55;1.83;;;0.68;;
27491;SDS011;14927;51.210;6.838;2024-03-02T09:53:40;2.75;;;0.75;;
27491;SDS011;14927;51.210;6.838;2024-03-02T09:56:25;2.03;;;0.60;;
27491;SDS011;14927;51.210;6.838;2024-03-02T09:59:10;3.22;;;0.98;;
27491;SDS011;14927;51.210;6.838;2024-03-02T10:01:56;1.17;;;0.60;;
27491;SDS011;14927;51.210;6.838;2024-03-02T10:04:44;1.23;;;0.50;;
27491;SDS011;14927;51.210;6.838;2024-03-02T10:07:30;5.18;;;1.05;;
27491;SDS011;14927;51.210;6.838;2024-03-02T10:10:15;1.75;;;0.63;;
27491;SDS011;14927;51.210;6.838;2024-03-02T10:13:04;1.70;;;0.60;;
27491;SDS011;14927;51.210;6.838;2024-03-02T10:15:53;2.55;;;0.60;;
27491;SDS011;14927;51.210;6.838;2024-03-02T10:18:38;1.85;;;0.55;;
27491;SDS011;14927;51.210;6.838;2024-03-02T10:21:23;3.25;;;0.98;;
27491;SDS011;14927;51.210;6.838;2024-03-02T10:24:09;3.60;;;0.90;;
27491;SDS011;14927;51.210;6.838;2024-03-02T10:26:57;4.07;;;0.88;;
27491;SDS011;14927;51.210;6.838;2024-03-02T10:29:42;2.45;;;1.00;;
27491;SDS011;14927;51.210;6.838;2024-03-02T10:32:30;3.50;;;1.02;;
27491;SDS011;14927;51.210;6.838;2024-03-02T10:35:16;3.85;;;1.50;;
27491;SDS011;14927;51.210;6.838;2024-03-02T10:38:01;7.65;;;1.40;;
27491;SDS011;14927;51.210;6.838;2024-03-02T10:40:49;3.75;;;1.10;;
27491;SDS011;14927;51.210;6.838;2024-03-02T10:43:34;1.77;;;0.95;;
27491;SDS011;14927;51.210;6.838;2024-03-02T10:46:19;4.90;;;1.20;;
27491;SDS011;14927;51.210;6.838;2024-03-02T10:49:05;2.63;;;0.95;;
27491;SDS011;14927;51.210;6.838;2024-03-02T10:51:50;1.48;;;0.95;;
27491;SDS011;14927;51.210;6.838;2024-03-02T10:54:34;2.97;;;1.13;;
27491;SDS011;14927;51.210;6.838;2024-03-02T10:57:23;1.98;;;1.23;;
27491;SDS011;14927;51.210;6.838;2024-03-02T11:00:13;3.53;;;1.10;;
27491;SDS011;14927;51.210;6.838;2024-03-02T11:03:05;6.88;;;1.40;;
27491;SDS011;14927;51.210;6.838;2024-03-02T11:05:54;2.85;;;1.00;;
27491;SDS011;14927;51.210;6.838;2024-03-02T11:08:40;2.47;;;1.00;;
27491;SDS011;14927;51.210;6.838;2024-03-02T11:11:29;3.83;;;1.10;;
27491;SDS011;14927;51.210;6.838;2024-03-02T11:14:18;8.38;;;0.85;;
27491;SDS011;14927;51.210;6.838;2024-03-02T11:19:54;3.95;;;0.88;;
27491;SDS011;14927;51.210;6.838;2024-03-02T11:22:39;4.28;;;0.90;;
27491;SDS011;14927;51.210;6.838;2024-03-02T11:25:27;3.03;;;1.15;;
27491;SDS011;14927;51.210;6.838;2024-03-02T11:28:12;3.85;;;1.52;;
27491;SDS011;14927;51.210;6.838;2024-03-02T11:30:56;1.98;;;1.00;;
27491;SDS011;14927;51.210;6.838;2024-03-02T11:33:41;3.25;;;1.08;;
27491;SDS011;14927;51.210;6.838;2024-03-02T11:36:27;2.60;;;1.05;;
27491;SDS011;14927;51.210;6.838;2024-03-02T11:39:11;1.30;;;1.00;;
27491;SDS011;14927;51.210;6.838;2024-03-02T11:41:56;2.88;;;0.80;;
27491;SDS011;14927;51.210;6.838;2024-03-02T11:44:45;2.30;;;1.05;;
27491;SDS011;14927;51.210;6.838;2024-03-02T11:47:31;6.65;;;1.30;;
27491;SDS011;14927;51.210;6.838;2024-03-02T11:50:35;3.67;;;0.80;;
27491;SDS011;14927;51.210;6.838;2024-03-02T11:53:30;2.42;;;0.80;;
27491;SDS011;14927;51.210;6.838;2024-03-02T11:56:18;2.72;;;1.05;;
27491;SDS011;14927;51.210;6.838;2024-03-02T11:59:03;7.07;;;1.23;;
27491;SDS011;14927;51.210;6.838;2024-03-02T12:01:47;1.75;;;0.70;;
27491;SDS011;14927;51.210;6.838;2024-03-02T12:04:32;2.67;;;1.30;;
27491;SDS011;14927;51.210;6.838;2024-03-02T12:07:22;1.52;;;0.70;;
27491;SDS011;14927;51.210;6.838;2024-03-02T12:10:07;3.05;;;0.80;;
27491;SDS011;14927;51.210;6.838;2024-03-02T12:12:58;1.33;;;0.60;;
27491;SDS011;14927;51.210;6.838;2024-03-02T12:15:47;1.98;;;1.05;;
27491;SDS011;14927;51.210;6.838;2024-03-02T12:18:38;4.10;;;0.80;;
27491;SDS011;14927;51.210;6.838;2024-03-02T12:21:26;2.35;;;0.80;;
27491;SDS011;14927;51.210;6.838;2024-03-02T12:28:07;3.45;;;0.90;;
27491;SDS011;14927;51.210;6.838;2024-03-02T12:30:52;3.15;;;0.80;;
27491;SDS011;14927;51.210;6.838;2024-03-02T12:33:37;1.63;;;0.68;;
27491;SDS011;14927;51.210;6.838;2024-03-02T12:36:22;3.00;;;0.73;;
27491;SDS011;14927;51.210;6.838;2024-03-02T12:39:10;1.40;;;0.75;;
27491;SDS011;14927;51.210;6.838;2024-03-02T12:41:54;1.40;;;0.70;;
27491;SDS011;14927;51.210;6.838;2024-03-02T12:44:39;1.17;;;0.50;;
27491;SDS011;14927;51.210;6.838;2024-03-02T12:47:24;4.63;;;0.73;;
27491;SDS011;14927;51.210;6.838;2024-03-02T12:50:09;5.13;;;0.70;;
27491;SDS011;14927;51.210;6.838;2024-03-02T12:52:54;1.02;;;0.65;;
27491;SDS011;14927;51.210;6.838;2024-03-02T12:55:39;1.90;;;0.60;;
27491;SDS011;14927;51.210;6.838;2024-03-02T12:58:25;1.85;;;0.90;;
27491;SDS011;14927;51.210;6.838;2024-03-02T13:01:10;2.67;;;0.75;;
27491;SDS011;14927;51.210;6.838;2024-03-02T13:03:55;1.15;;;0.80;;
27491;SDS011;14927;51.210;6.838;2024-03-02T13:06:41;1.17;;;0.82;;
27491;SDS011;14927;51.210;6.838;2024-03-02T13:09:26;4.50;;;0.73;;
27491;SDS011;14927;51.210;6.838;2024-03-02T13:12:14;0.70;;;0.52;;
27491;SDS011;14927;51.210;6.838;2024-03-02T13:15:00;1.45;;;0.63;;
27491;SDS011;14927;51.210;6.838;2024-03-02T13:17:47;1.00;;;0.60;;
27491;SDS011;14927;51.210;6.838;2024-03-02T13:20:33;1.05;;;0.85;;
27491;SDS011;14927;51.210;6.838;2024-03-02T13:23:18;3.03;;;0.68;;
27491;SDS011;14927;51.210;6.838;2024-03-02T13:26:04;2.13;;;0.80;;
27491;SDS011;14927;51.210;6.838;2024-03-02T13:28:49;1.45;;;0.82;;
27491;SDS011;14927;51.210;6.838;2024-03-02T13:31:33;1.77;;;0.80;;
27491;SDS011;14927;51.210;6.838;2024-03-02T13:34:18;1.40;;;0.90;;
27491;SDS011;14927;51.210;6.838;2024-03-02T13:37:03;0.75;;;0.60;;
27491;SDS011;14927;51.210;6.838;2024-03-02T13:39:49;2.30;;;0.80;;
27491;SDS011;14927;51.210;6.838;2024-03-02T13:42:33;0.70;;;0.50;;
27491;SDS011;14927;51.210;6.838;2024-03-02T13:45:18;1.50;;;0.60;;
27491;SDS011;14927;51.210;6.838;2024-03-02T13:48:03;0.60;;;0.60;;
27491;SDS011;14927;51.210;6.838;2024-03-02T13:50:48;1.60;;;0.75;;
27491;SDS011;14927;51.210;6.838;2024-03-02T13:53:34;2.08;;;1.13;;
27491;SDS011;14927;51.210;6.838;2024-03-02T13:56:18;1.17;;;0.70;;
27491;SDS011;14927;51.210;6.838;2024-03-02T13:59:03;2.15;;;0.80;;
27491;SDS011;14927;51.210;6.838;2024-03-02T14:01:49;0.85;;;0.60;;
27491;SDS011;14927;51.210;6.838;2024-03-02T14:04:34;0.75;;;0.60;;
27491;SDS011;14927;51.210;6.838;2024-03-02T14:07:19;1.15;;;0.80;;
27491;SDS011;14927;51.210;6.838;2024-03-02T14:10:04;4.30;;;0.90;;
27491;SDS011;14927;51.210;6.838;2024-03-02T14:12:49;0.68;;;0.50;;
27491;SDS011;14927;51.210;6.838;2024-03-02T14:15:33;1.35;;;0.47;;
27491;SDS011;14927;51.210;6.838;2024-03-02T14:18:22;1.00;;;0.45;;
27491;SDS011;14927;51.210;6.838;2024-03-02T14:21:07;1.45;;;0.60;;
27491;SDS011;14927;51.210;6.838;2024-03-02T14:23:51;2.28;;;0.60;;
27491;SDS011;14927;51.210;6.838;2024-03-02T14:26:36;1.85;;;0.95;;
27491;SDS011;14927;51.210;6.838;2024-03-02T14:29:21;1.02;;;0.73;;
27491;SDS011;14927;51.210;6.838;2024-03-02T14:32:06;1.13;;;0.63;;
27491;SDS011;14927;51.210;6.838;2024-03-02T14:34:51;0.90;;;0.63;;
27491;SDS011;14927;51.210;6.838;2024-03-02T14:37:36;1.23;;;0.50;;
27491;SDS011;14927;51.210;6.838;2024-03-02T14:40:21;0.82;;;0.70;;
27491;SDS011;14927;51.210;6.838;2024-03-02T14:43:05;0.75;;;0.60;;
27491;SDS011;14927;51.210;6.838;2024-03-02T14:45:50;0.68;;;0.63;;
27491;SDS011;14927;51.210;6.838;2024-03-02T14:48:35;3.10;;;0.88;;
27491;SDS011;14927;51.210;6.838;2024-03-02T14:51:20;5.65;;;0.77;;
27491;SDS011;14927;51.210;6.838;2024-03-02T14:54:05;3.20;;;0.80;;
27491;SDS011;14927;51.210;6.838;2024-03-02T14:56:50;1.13;;;0.68;;
27491;SDS011;14927;51.210;6.838;2024-03-02T14:59:35;0.57;;;0.57;;
27491;SDS011;14927;51.210;6.838;2024-03-02T15:02:20;2.67;;;0.52;;
27491;SDS011;14927;51.210;6.838;2024-03-02T15:05:05;2.88;;;0.98;;
27491;SDS011;14927;51.210;6.838;2024-03-02T15:07:50;1.27;;;0.55;;
27491;SDS011;14927;51.210;6.838;2024-03-02T15:10:35;0.68;;;0.52;;
27491;SDS011;14927;51.210;6.838;2024-03-02T15:13:19;1.05;;;0.70;;
27491;SDS011;14927;51.210;6.838;2024-03-02T15:16:04;2.28;;;1.27;;
27491;SDS011;14927;51.210;6.838;2024-03-02T15:18:49;1.88;;;0.70;;
27491;SDS011;14927;51.210;6.838;2024-03-02T15:21:33;1.48;;;0.70;;
27491;SDS011;14927;51.210;6.838;2024-03-02T15:24:19;2.30;;;0.85;;
27491;SDS011;14927;51.210;6.838;2024-03-02T15:27:04;1.63;;;0.80;;
27491;SDS011;14927;51.210;6.838;2024-03-02T15:29:51;0.47;;;0.43;;
27491;SDS011;14927;51.210;6.838;2024-03-02T15:32:36;1.70;;;0.80;;
27491;SDS011;14927;51.210;6.838;2024-03-02T15:35:22;1.63;;;0.80;;
27491;SDS011;14927;51.210;6.838;2024-03-02T15:38:06;1.92;;;0.60;;
27491;SDS011;14927;51.210;6.838;2024-03-02T15:40:52;1.77;;;0.88;;
27491;SDS011;14927;51.210;6.838;2024-03-02T15:43:37;1.45;;;0.80;;
27491;SDS011;14927;51.210;6.838;2024-03-02T15:46:25;1.23;;;0.60;;
27491;SDS011;14927;51.210;6.838;2024-03-02T15:49:09;0.95;;;0.68;;
27491;SDS011;14927;51.210;6.838;2024-03-02T15:51:54;2.60;;;0.85;;
27491;SDS011;14927;51.210;6.838;2024-03-02T15:54:39;1.60;;;1.10;;
27491;SDS011;14927;51.210;6.838;2024-03-02T15:57:23;1.08;;;0.80;;
27491;SDS011;14927;51.210;6.838;2024-03-02T16:00:09;3.28;;;0.80;;
27491;SDS011;14927;51.210;6.838;2024-03-02T16:02:55;0.57;;;0.57;;
27491;SDS011;14927;51.210;6.838;2024-03-02T16:05:40;1.05;;;0.80;;
27491;SDS011;14927;51.210;6.838;2024-03-02T16:08:24;2.88;;;1.17;;
27491;SDS011;14927;51.210;6.838;2024-03-02T16:11:09;1.20;;;0.80;;
27491;SDS011;14927;51.210;6.838;2024-03-02T16:13:54;1.15;;;0.88;;
27491;SDS011;14927;51.210;6.838;2024-03-02T16:16:38;1.77;;;1.00;;
27491;SDS011;14927;51.210;6.838;2024-03-02T16:19:23;1.17;;;0.82;;
27491;SDS011;14927;51.210;6.838;2024-03-02T16:22:08;2.10;;;1.00;;
27491;SDS011;14927;51.210;6.838;2024-03-02T16:24:55;0.63;;;0.63;;
27491;SDS011;14927;51.210;6.838;2024-03-02T16:27:39;3.78;;;1.17;;
27491;SDS011;14927;51.210;6.838;2024-03-02T16:30:25;4.55;;;0.77;;
27491;SDS011;14927;51.210;6.838;2024-03-02T16:33:10;1.90;;;0.80;;
27491;SDS011;14927;51.210;6.838;2024-03-02T16:35:55;2.22;;;0.70;;
27491;SDS011;14927;51.210;6.838;2024-03-02T16:38:40;2.95;;;0.70;;
27491;SDS011;14927;51.210;6.838;2024-03-02T16:41:27;1.48;;;0.80;;
27491;SDS011;14927;51.210;6.838;2024-03-02T16:44:15;1.13;;;0.70;;
27491;SDS011;14927;51.210;6.838;2024-03-02T16:47:00;1.45;;;1.10;;
27491;SDS011;14927;51.210;6.838;2024-03-02T16:49:45;1.42;;;0.80;;